Air Navigation Services of Czech Republic
Airport: LKCV Updated:  21.11.2019 18:00:27  UTC
 METAR LKCV 21.11. 18:00 ...
METAR LKCV 211800Z 14012KT 9999 SCT017 BKN090 09/07 Q1009 TEMPO BKN017 RMK BLU WHT=
 TAF LKCV 21.11. 17:00 ...
TAF LKCV 211700Z 2118/2218 15013KT 9999 OVC018      TEMPO 2118/2121 4000 DZ BR BKN008 OVC014      BECMG 2120/2123 15007KT 9999 BKN025      TEMPO 2202/2207 1500 BCFG BR OVC003      BECMG 2206/2208 14010KT      TEMPO 2209/2218 14016KT=